createdAt,value
2022-12-03T00:00:11.842Z,95700.97
2022-12-03T00:05:19.300Z,95699.75
2022-12-03T00:10:22.424Z,95699.75
2022-12-03T00:15:25.582Z,95689.78
2022-12-03T00:20:28.732Z,95694.47
2022-12-03T00:25:31.824Z,95692.72
2022-12-03T00:30:34.916Z,95702.91
2022-12-03T00:35:37.985Z,95697.38
2022-12-03T00:40:41.041Z,95705.13
2022-12-03T00:45:44.088Z,95697.00
2022-12-03T00:50:47.910Z,95677.50
2022-12-03T00:55:51.664Z,95693.72
2022-12-03T01:00:54.814Z,95697.38
2022-12-03T01:05:58.026Z,95699.66
2022-12-03T01:11:01.328Z,95697.19
2022-12-03T01:16:04.546Z,95695.78
2022-12-03T01:21:07.722Z,95701.53
2022-12-03T01:26:10.810Z,95692.38
2022-12-03T01:31:31.552Z,95692.59
2022-12-03T01:36:35.220Z,95693.47
2022-12-03T01:41:38.256Z,95693.06
2022-12-03T01:46:41.451Z,95703.25
2022-12-03T01:51:44.561Z,95706.91
2022-12-03T01:56:48.028Z,95702.66
2022-12-03T02:01:51.210Z,95710.59
2022-12-03T02:06:54.644Z,95702.03
2022-12-03T02:11:57.750Z,95690.09
2022-12-03T02:17:00.820Z,95702.50
2022-12-03T02:22:03.887Z,95702.03
2022-12-03T02:27:06.993Z,95707.75
2022-12-03T02:32:10.138Z,95706.09
2022-12-03T02:37:13.271Z,95703.28
2022-12-03T02:42:36.064Z,95711.47
2022-12-03T02:47:39.775Z,95704.78
2022-12-03T02:52:42.937Z,95702.75
2022-12-03T02:57:46.122Z,95705.59
2022-12-03T03:02:49.607Z,95707.19
2022-12-03T03:07:52.753Z,95705.78
2022-12-03T03:12:55.859Z,95704.38
2022-12-03T03:17:58.975Z,95703.75
2022-12-03T03:23:02.036Z,95699.94
2022-12-03T03:28:06.225Z,95700.28
2022-12-03T03:33:09.301Z,95688.94
2022-12-03T03:38:12.398Z,95677.59
2022-12-03T03:43:15.527Z,95691.81
2022-12-03T03:48:18.628Z,95695.28
2022-12-03T03:53:21.743Z,95687.75
2022-12-03T03:58:24.876Z,95698.50
2022-12-03T04:03:28.015Z,95686.72
2022-12-03T04:08:46.142Z,95684.72
2022-12-03T04:13:49.396Z,95693.66
2022-12-03T04:18:52.562Z,95685.09
2022-12-03T04:23:55.683Z,95681.03
2022-12-03T04:28:58.768Z,95682.69
2022-12-03T04:34:20.215Z,95686.94
2022-12-03T04:39:23.275Z,95707.03
2022-12-03T04:44:36.149Z,95701.75
2022-12-03T04:49:39.419Z,95707.47
2022-12-03T04:54:42.554Z,95706.00
2022-12-03T04:59:45.728Z,95702.16
2022-12-03T05:04:48.896Z,95709.66
2022-12-03T05:09:52.104Z,95703.78
2022-12-03T05:14:57.514Z,95706.22
2022-12-03T05:20:18.252Z,95697.28
2022-12-03T05:25:21.372Z,95703.78
2022-12-03T05:30:24.799Z,95715.16
2022-12-03T05:35:32.181Z,95711.50
2022-12-03T05:40:35.303Z,95715.38
2022-12-03T05:45:38.488Z,95713.75
2022-12-03T05:50:44.295Z,95710.28
2022-12-03T05:55:47.392Z,95710.09
2022-12-03T06:00:50.587Z,95712.31
2022-12-03T06:05:53.872Z,95716.38
2022-12-03T06:10:56.977Z,95716.78
2022-12-03T06:16:00.208Z,95703.59
2022-12-03T06:21:03.440Z,95707.66
2022-12-03T06:26:08.478Z,95695.66
2022-12-03T06:31:11.685Z,95699.31
2022-12-03T06:36:17.797Z,95697.91
2022-12-03T06:41:24.534Z,95693.66
2022-12-03T06:46:27.783Z,95710.28
2022-12-03T06:51:32.010Z,95691.03
2022-12-03T06:56:39.110Z,95687.34
2022-12-03T07:01:46.648Z,95689.56
2022-12-03T07:06:49.773Z,95695.25
2022-12-03T07:11:52.857Z,95691.59
2022-12-03T07:16:55.937Z,95685.28
2022-12-03T07:21:59.068Z,95685.53
2022-12-03T07:27:02.215Z,95700.34
2022-12-03T07:32:05.412Z,95687.56
2022-12-03T07:37:08.514Z,95696.69
2022-12-03T07:42:11.685Z,95686.53
2022-12-03T07:47:14.776Z,95690.75
2022-12-03T07:52:17.950Z,95698.91
2022-12-03T07:57:21.799Z,95697.03
2022-12-03T08:02:25.133Z,95703.75
2022-12-03T08:07:28.378Z,95693.94
2022-12-03T08:12:40.960Z,95683.25
2022-12-03T08:17:44.084Z,95692.00
2022-12-03T08:22:47.202Z,95680.19
2022-12-03T08:27:50.381Z,95674.50
2022-12-03T08:32:53.597Z,95684.03
2022-12-03T08:37:56.719Z,95685.88
2022-12-03T08:43:02.610Z,95684.09
2022-12-03T08:48:05.772Z,95693.63
2022-12-03T08:53:09.446Z,95690.53
2022-12-03T08:58:12.702Z,95695.44
2022-12-03T09:03:16.255Z,95694.41
2022-12-03T09:08:19.410Z,95684.84
2022-12-03T09:13:22.652Z,95687.72
2022-12-03T09:18:25.768Z,95678.59
2022-12-03T09:23:28.958Z,95689.50
2022-12-03T09:28:32.146Z,95687.84
2022-12-03T09:33:35.353Z,95682.97
2022-12-03T09:38:41.853Z,95687.47
2022-12-03T09:44:03.960Z,95667.34
2022-12-03T09:49:15.298Z,95670.50
2022-12-03T09:54:19.070Z,95660.44
2022-12-03T09:59:22.359Z,95654.06
2022-12-03T10:04:25.506Z,95644.75
2022-12-03T10:09:28.693Z,95639.47
2022-12-03T10:14:31.871Z,95632.31
2022-12-03T10:19:35.635Z,95633.81
2022-12-03T10:24:39.004Z,95644.81
2022-12-03T10:29:42.735Z,95625.19
2022-12-03T10:34:46.361Z,95607.63
2022-12-03T10:39:54.198Z,95608.53
2022-12-03T10:44:59.038Z,95610.56
2022-12-03T10:50:02.300Z,95603.84
2022-12-03T10:55:05.434Z,95598.34
2022-12-03T11:00:08.662Z,95595.50
2022-12-03T11:05:11.779Z,95582.97
2022-12-03T11:10:16.569Z,95580.56
2022-12-03T11:15:19.808Z,95574.63
2022-12-03T11:20:23.323Z,95579.44
2022-12-03T11:25:26.492Z,95583.06
2022-12-03T11:30:30.190Z,95587.75
2022-12-03T11:35:33.345Z,95597.63
2022-12-03T11:40:39.720Z,95587.53
2022-12-03T11:45:43.166Z,95588.41
2022-12-03T11:50:46.269Z,95596.91
2022-12-03T11:55:52.267Z,95581.00
2022-12-03T12:00:56.079Z,95595.06
2022-12-03T12:05:59.481Z,95586.56
2022-12-03T12:11:02.981Z,95572.44
2022-12-03T12:16:06.183Z,95561.50
2022-12-03T12:21:09.409Z,95566.44
2022-12-03T12:26:12.818Z,95548.44
2022-12-03T12:31:16.354Z,95549.00
2022-12-03T12:36:19.860Z,95551.50
2022-12-03T12:41:23.119Z,95544.09
2022-12-03T12:46:47.144Z,95531.72
2022-12-03T12:51:50.213Z,95531.31
2022-12-03T12:56:53.598Z,95528.09
2022-12-03T13:01:57.233Z,95510.53
2022-12-03T13:07:00.726Z,95513.81
2022-12-03T13:12:04.419Z,95509.25
2022-12-03T13:17:07.513Z,95512.56
2022-12-03T13:22:10.611Z,95503.09
2022-12-03T13:27:13.730Z,95492.47
2022-12-03T13:32:16.921Z,95506.38
2022-12-03T13:37:20.267Z,95496.00
2022-12-03T13:42:42.395Z,95485.88
2022-12-03T13:47:45.844Z,95496.88
2022-12-03T13:52:49.773Z,95493.22
2022-12-03T13:57:55.631Z,95495.41
2022-12-03T14:02:58.729Z,95494.44
2022-12-03T14:08:02.730Z,95488.34
2022-12-03T14:13:06.030Z,95490.84
2022-12-03T14:18:09.144Z,95483.75
2022-12-03T14:23:12.267Z,95489.66
2022-12-03T14:28:15.468Z,95496.63
2022-12-03T14:33:18.753Z,95486.28
2022-12-03T14:38:21.828Z,95495.38
2022-12-03T14:43:25.400Z,95484.41
2022-12-03T14:48:28.484Z,95497.66
2022-12-03T14:53:31.597Z,95496.00
2022-12-03T14:58:34.997Z,95490.19
2022-12-03T15:03:38.199Z,95486.53
2022-12-03T15:08:41.308Z,95477.97
2022-12-03T15:13:44.444Z,95482.41
2022-12-03T15:18:48.075Z,95471.03
2022-12-03T15:23:51.270Z,95475.69
2022-12-03T15:28:54.964Z,95490.25
2022-12-03T15:33:58.711Z,95485.56
2022-12-03T15:39:02.004Z,95483.06
2022-12-03T15:44:05.284Z,95474.59
2022-12-03T15:49:08.421Z,95461.59
2022-12-03T15:54:12.380Z,95471.03
2022-12-03T15:59:15.697Z,95469.06
2022-12-03T16:04:19.278Z,95460.88
2022-12-03T16:09:27.149Z,95477.34
2022-12-03T16:14:31.134Z,95475.16
2022-12-03T16:19:34.285Z,95474.44
2022-12-03T16:24:37.771Z,95469.09
2022-12-03T16:29:51.078Z,95476.41
2022-12-03T16:34:54.604Z,95474.78
2022-12-03T16:39:58.136Z,95474.00
2022-12-03T16:45:33.601Z,95477.06
2022-12-03T16:50:37.787Z,95476.00
2022-12-03T16:55:40.976Z,95469.38
2022-12-03T17:00:44.120Z,95469.75
2022-12-03T17:05:47.237Z,95470.00
2022-12-03T17:10:50.742Z,95472.03
2022-12-03T17:15:53.570Z,95464.72
2022-12-03T17:20:56.449Z,95454.34
2022-12-03T17:26:09.178Z,95453.16
2022-12-03T17:31:11.998Z,95454.56
2022-12-03T17:36:14.803Z,95437.59
2022-12-03T17:41:17.502Z,95444.28
2022-12-03T17:46:20.304Z,95455.41
2022-12-03T17:51:24.905Z,95444.66
2022-12-03T17:56:27.972Z,95441.59
2022-12-03T18:01:30.630Z,95436.31
2022-12-03T18:06:33.345Z,95452.22
2022-12-03T18:11:41.294Z,95447.53
2022-12-03T18:16:44.405Z,95435.59
2022-12-03T18:21:47.106Z,95431.09
2022-12-03T18:26:49.701Z,95436.63
2022-12-03T18:31:52.375Z,95444.72
2022-12-03T18:36:55.273Z,95435.56
2022-12-03T18:41:58.001Z,95432.13
2022-12-03T18:47:02.591Z,95421.38
2022-12-03T18:52:05.748Z,95422.91
2022-12-03T18:57:08.499Z,95425.41
2022-12-03T19:02:11.630Z,95434.34
2022-12-03T19:07:15.655Z,95442.50
2022-12-03T19:12:18.454Z,95433.88
2022-12-03T19:17:21.452Z,95433.50
2022-12-03T19:22:24.127Z,95430.00
2022-12-03T19:27:26.769Z,95429.81
2022-12-03T19:32:29.423Z,95416.47
2022-12-03T19:37:32.131Z,95421.38
2022-12-03T19:42:34.803Z,95423.19
2022-12-03T19:47:37.429Z,95415.88
2022-12-03T19:52:40.147Z,95422.34
2022-12-03T19:57:42.776Z,95415.63
2022-12-03T20:02:46.034Z,95422.91
2022-12-03T20:07:48.926Z,95418.28
2022-12-03T20:12:51.609Z,95419.44
2022-12-03T20:17:54.323Z,95407.06
2022-12-03T20:22:57.058Z,95406.25
2022-12-03T20:27:59.840Z,95400.59
2022-12-03T20:33:02.428Z,95387.72
2022-12-03T20:38:05.101Z,95381.81
2022-12-03T20:43:07.762Z,95379.75
2022-12-03T20:48:11.582Z,95380.19
2022-12-03T20:53:24.729Z,95370.84
2022-12-03T20:58:28.092Z,95374.09
2022-12-03T21:03:30.806Z,95381.63
2022-12-03T21:08:41.054Z,95378.16
2022-12-03T21:13:44.457Z,95356.25
2022-12-03T21:18:47.192Z,95349.78
2022-12-03T21:23:49.939Z,95356.09
2022-12-03T21:28:52.610Z,95351.47
2022-12-03T21:33:55.433Z,95350.41
2022-12-03T21:38:58.110Z,95338.19
2022-12-03T21:44:00.824Z,95336.34
2022-12-03T21:49:03.548Z,95345.22
2022-12-03T21:54:06.274Z,95338.56
2022-12-03T21:59:08.861Z,95345.63
2022-12-03T22:04:11.514Z,95352.97
2022-12-03T22:09:14.104Z,95346.38
2022-12-03T22:14:16.690Z,95346.06
2022-12-03T22:19:19.386Z,95348.09
2022-12-03T22:24:23.616Z,95356.34
2022-12-03T22:29:36.214Z,95348.59
2022-12-03T22:34:40.865Z,95350.41
2022-12-03T22:39:43.578Z,95335.41
2022-12-03T22:44:46.296Z,95335.81
2022-12-03T22:49:49.084Z,95313.84
2022-12-03T22:54:51.669Z,95330.53
2022-12-03T22:59:54.542Z,95316.47
2022-12-03T23:04:57.475Z,95319.09
2022-12-03T23:10:00.197Z,95317.66
2022-12-03T23:15:02.972Z,95302.22
2022-12-03T23:20:06.320Z,95295.75
2022-12-03T23:25:09.382Z,95292.53
2022-12-03T23:30:14.160Z,95286.97
2022-12-03T23:35:17.253Z,95290.88
2022-12-03T23:40:19.913Z,95283.34
2022-12-03T23:45:22.518Z,95279.78
2022-12-03T23:50:25.213Z,95276.59
2022-12-03T23:55:27.914Z,95270.56
